Dun Laoghaire, Ireland
Current Conditions -  °F | °C
As of 11:00 AM on Sunday 23 Nov 2014 (Local Time) from EIDW Reporting Station
Few Clouds Few Clouds  
Wind Chill: 31°   Ceiling: Unl
Heat Index: 39°   Visibility: 6mi
Dew Point: 37°   Wind: 14mph
Humidity: 93%   Direction: 260°W
Pressure: 30.12"   Gusts: NA
Location:  53.29°N, 6.13°W
Report Text: EIDW 231100Z 26012KT 9999 FEW017 04/03 Q1020 NOSIG
Loading
Personal Weather Stations






























Interactive Weather Map New forecast layout! Learn more

10-Day Weather Forecast

Advertisements
Track Severe Weather on mobile